createdAt,value
2023-04-22T00:00:43.400Z,46.16
2023-04-22T00:03:16.258Z,45.36
2023-04-22T00:05:49.195Z,45.93
2023-04-22T00:08:21.787Z,46.14
2023-04-22T00:10:54.322Z,46.13
2023-04-22T00:13:26.869Z,46.13
2023-04-22T00:15:59.497Z,45.93
2023-04-22T00:18:37.187Z,45.02
2023-04-22T00:21:09.745Z,45.71
2023-04-22T00:23:45.224Z,45.00
2023-04-22T00:26:17.778Z,46.04
2023-04-22T00:28:50.693Z,45.97
2023-04-22T00:31:23.291Z,46.02
2023-04-22T00:33:55.771Z,46.26
2023-04-22T00:36:28.260Z,46.16
2023-04-22T00:39:00.830Z,44.96
2023-04-22T00:41:33.843Z,45.03
2023-04-22T00:44:10.889Z,44.96
2023-04-22T00:46:43.498Z,46.10
2023-04-22T00:49:16.750Z,45.54
2023-04-22T00:51:49.246Z,45.50
2023-04-22T00:54:21.704Z,46.10
2023-04-22T00:56:55.041Z,45.41
2023-04-22T00:59:27.644Z,46.18
2023-04-22T01:02:00.633Z,45.48
2023-04-22T01:04:33.352Z,46.14
2023-04-22T01:07:06.766Z,45.10
2023-04-22T01:09:41.015Z,46.12
2023-04-22T01:12:14.053Z,45.58
2023-04-22T01:14:46.599Z,44.94
2023-04-22T01:17:19.561Z,44.95
2023-04-22T01:19:53.287Z,46.04
2023-04-22T01:22:29.853Z,45.89
2023-04-22T01:25:03.191Z,45.84
2023-04-22T01:27:35.655Z,46.13
2023-04-22T01:30:08.779Z,46.07
2023-04-22T01:32:41.660Z,45.02
2023-04-22T01:35:14.191Z,44.98
2023-04-22T01:37:46.718Z,46.11
2023-04-22T01:40:22.587Z,46.04
2023-04-22T01:42:55.163Z,45.06
2023-04-22T01:45:28.170Z,45.19
2023-04-22T01:48:00.854Z,46.07
2023-04-22T01:50:33.486Z,45.50
2023-04-22T01:53:07.588Z,45.47
2023-04-22T01:55:40.394Z,46.13
2023-04-22T01:58:13.076Z,45.94
2023-04-22T02:00:45.670Z,45.15
2023-04-22T02:03:18.194Z,45.53
2023-04-22T02:05:50.738Z,45.13
2023-04-22T02:08:23.359Z,45.45
2023-04-22T02:10:55.882Z,45.64
2023-04-22T02:13:39.041Z,45.03
2023-04-22T02:16:11.706Z,45.16
2023-04-22T02:18:44.330Z,46.11
2023-04-22T02:21:16.867Z,45.14
2023-04-22T02:23:49.437Z,45.29
2023-04-22T02:26:21.833Z,45.33
2023-04-22T02:28:54.281Z,45.10
2023-04-22T02:31:26.730Z,46.25
2023-04-22T02:33:59.222Z,46.24
2023-04-22T02:36:32.430Z,45.67
2023-04-22T02:39:06.029Z,45.06
2023-04-22T02:41:38.579Z,45.97
2023-04-22T02:44:11.065Z,45.97
2023-04-22T02:46:43.574Z,45.02
2023-04-22T02:49:16.106Z,45.21
2023-04-22T02:51:48.557Z,45.46
2023-04-22T02:54:21.059Z,46.27
2023-04-22T02:56:53.557Z,45.15
2023-04-22T02:59:26.128Z,45.24
2023-04-22T03:01:58.685Z,45.12
2023-04-22T03:04:32.466Z,45.83
2023-04-22T03:07:04.929Z,45.27
2023-04-22T03:09:37.549Z,46.33
2023-04-22T03:12:10.499Z,45.24
2023-04-22T03:14:43.222Z,45.39
2023-04-22T03:17:16.032Z,46.09
2023-04-22T03:19:49.763Z,45.82
2023-04-22T03:22:22.287Z,45.57
2023-04-22T03:24:54.735Z,45.73
2023-04-22T03:27:27.245Z,45.12
2023-04-22T03:29:59.632Z,46.23
2023-04-22T03:32:32.084Z,45.08
2023-04-22T03:35:04.847Z,45.33
2023-04-22T03:37:37.330Z,45.74
2023-04-22T03:40:10.769Z,45.39
2023-04-22T03:42:44.143Z,45.22
2023-04-22T03:45:16.918Z,45.39
2023-04-22T03:47:49.472Z,45.61
2023-04-22T03:50:22.181Z,45.19
2023-04-22T03:52:54.622Z,45.96
2023-04-22T03:55:27.124Z,46.33
2023-04-22T03:57:59.523Z,45.33
2023-04-22T04:00:31.974Z,45.78
2023-04-22T04:03:04.681Z,45.21
2023-04-22T04:05:37.684Z,45.34
2023-04-22T04:08:10.224Z,45.23
2023-04-22T04:10:42.624Z,45.38
2023-04-22T04:13:15.010Z,45.32
2023-04-22T04:15:47.919Z,45.61
2023-04-22T04:18:21.519Z,45.67
2023-04-22T04:20:53.989Z,45.39
2023-04-22T04:23:27.147Z,45.70
2023-04-22T04:26:02.700Z,45.46
2023-04-22T04:28:36.084Z,46.33
2023-04-22T04:31:08.570Z,45.39
2023-04-22T04:33:40.998Z,45.84
2023-04-22T04:36:13.548Z,45.84
2023-04-22T04:38:47.837Z,46.18
2023-04-22T04:41:21.165Z,45.49
2023-04-22T04:43:53.717Z,45.45
2023-04-22T04:46:29.641Z,45.84
2023-04-22T04:49:02.558Z,45.14
2023-04-22T04:51:35.669Z,45.87
2023-04-22T04:54:08.281Z,45.38
2023-04-22T04:56:40.900Z,45.94
2023-04-22T04:59:13.374Z,45.39
2023-04-22T05:01:45.923Z,45.92
2023-04-22T05:04:18.622Z,46.08
2023-04-22T05:06:51.308Z,46.58
2023-04-22T05:09:23.889Z,46.50
2023-04-22T05:11:56.381Z,45.74
2023-04-22T05:14:28.907Z,45.44
2023-04-22T05:17:01.607Z,45.31
2023-04-22T05:19:34.287Z,45.46
2023-04-22T05:22:07.652Z,46.39
2023-04-22T05:24:40.204Z,46.13
2023-04-22T05:27:13.160Z,46.53
2023-04-22T05:29:45.686Z,45.43
2023-04-22T05:32:18.301Z,45.83
2023-04-22T05:34:50.854Z,46.19
2023-04-22T05:37:23.375Z,45.92
2023-04-22T05:39:55.942Z,46.08
2023-04-22T05:42:28.347Z,45.76
2023-04-22T05:45:00.807Z,45.36
2023-04-22T05:47:33.314Z,45.23
2023-04-22T05:50:06.630Z,45.91
2023-04-22T05:52:39.143Z,45.43
2023-04-22T05:55:11.572Z,45.42
2023-04-22T05:57:44.134Z,45.73
2023-04-22T06:00:17.237Z,45.97
2023-04-22T06:02:50.158Z,45.43
2023-04-22T06:05:22.987Z,46.02
2023-04-22T06:07:55.600Z,46.25
2023-04-22T06:10:28.073Z,45.56
2023-04-22T06:13:01.231Z,45.57
2023-04-22T06:15:34.474Z,45.33
2023-04-22T06:18:06.963Z,46.56
2023-04-22T06:20:39.662Z,45.58
2023-04-22T06:23:12.068Z,46.05
2023-04-22T06:25:44.570Z,45.56
2023-04-22T06:28:16.971Z,46.56
2023-04-22T06:30:49.416Z,46.06
2023-04-22T06:33:21.948Z,46.27
2023-04-22T06:35:54.492Z,46.17
2023-04-22T06:38:27.000Z,46.15
2023-04-22T06:40:59.525Z,45.90
2023-04-22T06:43:32.014Z,45.04
2023-04-22T06:46:04.665Z,46.23
2023-04-22T06:48:37.135Z,46.49
2023-04-22T06:51:09.588Z,45.42
2023-04-22T06:53:42.072Z,45.62
2023-04-22T06:56:15.655Z,45.13
2023-04-22T06:58:48.089Z,45.15
2023-04-22T07:01:20.910Z,45.29
2023-04-22T07:03:53.479Z,45.17
2023-04-22T07:06:26.051Z,44.97
2023-04-22T07:08:58.608Z,44.79
2023-04-22T07:11:31.685Z,45.02
2023-04-22T07:14:04.226Z,44.79
2023-04-22T07:16:36.806Z,45.14
2023-04-22T07:19:09.384Z,45.85
2023-04-22T07:21:41.847Z,45.31
2023-04-22T07:24:14.651Z,44.75
2023-04-22T07:26:47.176Z,45.80
2023-04-22T07:29:19.660Z,45.79
2023-04-22T07:31:52.115Z,45.80
2023-04-22T07:34:24.562Z,45.70
2023-04-22T07:36:56.991Z,45.77
2023-04-22T07:39:29.400Z,45.25
2023-04-22T07:42:02.167Z,45.02
2023-04-22T07:44:34.637Z,44.99
2023-04-22T07:47:08.486Z,45.29
2023-04-22T07:49:41.421Z,45.46
2023-04-22T07:52:14.096Z,44.94
2023-04-22T07:54:46.498Z,45.52
2023-04-22T07:57:22.188Z,45.43
2023-04-22T07:59:54.597Z,45.36
2023-04-22T08:02:27.333Z,44.79
2023-04-22T08:04:59.969Z,44.78
2023-04-22T08:07:33.666Z,44.66
2023-04-22T08:10:07.222Z,45.10
2023-04-22T08:12:39.684Z,44.42
2023-04-22T08:15:12.549Z,45.05
2023-04-22T08:17:45.077Z,45.01
2023-04-22T08:20:18.265Z,44.66
2023-04-22T08:22:51.738Z,44.58
2023-04-22T08:25:24.267Z,44.62
2023-04-22T08:27:56.799Z,45.12
2023-04-22T08:30:32.036Z,44.59
2023-04-22T08:33:04.553Z,44.56
2023-04-22T08:35:37.561Z,44.41
2023-04-22T08:38:10.078Z,44.53
2023-04-22T08:40:43.052Z,44.41
2023-04-22T08:43:15.995Z,44.42
2023-04-22T08:45:49.606Z,44.51
2023-04-22T08:48:22.113Z,44.57
2023-04-22T08:50:54.610Z,44.61
2023-04-22T08:53:27.066Z,44.36
2023-04-22T08:55:59.961Z,44.70
2023-04-22T08:58:34.679Z,44.49
2023-04-22T09:01:09.250Z,44.43
2023-04-22T09:03:42.264Z,44.40
2023-04-22T09:06:17.437Z,44.04
2023-04-22T09:08:50.544Z,44.90
2023-04-22T09:11:23.154Z,44.22
2023-04-22T09:13:55.696Z,44.26
2023-04-22T09:16:33.716Z,44.70
2023-04-22T09:19:06.253Z,44.36
2023-04-22T09:21:40.080Z,44.41
2023-04-22T09:24:12.932Z,44.34
2023-04-22T09:26:46.288Z,44.94
2023-04-22T09:29:18.754Z,44.42
2023-04-22T09:31:51.279Z,44.52
2023-04-22T09:34:23.788Z,44.69
2023-04-22T09:36:56.294Z,44.41
2023-04-22T09:39:29.229Z,44.46
2023-04-22T09:42:01.749Z,44.91
2023-04-22T09:44:35.295Z,44.29
2023-04-22T09:47:09.124Z,44.18
2023-04-22T09:49:46.820Z,44.16
2023-04-22T09:52:27.139Z,44.00
2023-04-22T09:54:59.658Z,44.65
2023-04-22T09:57:32.275Z,44.59
2023-04-22T10:00:08.119Z,44.63
2023-04-22T10:02:41.193Z,44.16
2023-04-22T10:05:13.888Z,44.52
2023-04-22T10:07:46.511Z,44.84
2023-04-22T10:10:18.999Z,44.51
2023-04-22T10:12:52.761Z,44.71
2023-04-22T10:15:27.134Z,44.33
2023-04-22T10:18:01.808Z,44.32
2023-04-22T10:20:38.347Z,44.50
2023-04-22T10:23:18.177Z,44.20
2023-04-22T10:25:54.232Z,44.49
2023-04-22T10:28:29.497Z,44.49
2023-04-22T10:31:07.091Z,44.22
2023-04-22T10:33:39.718Z,44.43
2023-04-22T10:36:14.859Z,44.49
2023-04-22T10:38:50.264Z,44.21
2023-04-22T10:41:24.186Z,44.32
2023-04-22T10:43:59.746Z,44.40
2023-04-22T10:46:37.110Z,44.45
2023-04-22T10:49:11.379Z,44.58
2023-04-22T10:51:45.000Z,44.37
2023-04-22T10:54:32.358Z,44.58
2023-04-22T10:57:10.812Z,44.56
2023-04-22T10:59:50.086Z,45.00
2023-04-22T11:02:23.979Z,44.50
2023-04-22T11:05:26.128Z,44.27
2023-04-22T11:08:13.127Z,44.31
2023-04-22T11:10:48.066Z,44.66
2023-04-22T11:13:21.926Z,44.68
2023-04-22T11:15:55.815Z,44.46
2023-04-22T11:18:33.005Z,44.85
2023-04-22T11:21:09.347Z,44.54
2023-04-22T11:23:50.710Z,44.66
2023-04-22T11:26:37.744Z,44.40
2023-04-22T11:29:10.578Z,44.80
2023-04-22T11:31:49.176Z,44.83
2023-04-22T11:34:21.727Z,44.68
2023-04-22T11:36:54.384Z,44.70
2023-04-22T11:39:35.743Z,44.50
2023-04-22T11:42:08.313Z,45.20
2023-04-22T11:44:44.766Z,45.03
2023-04-22T11:47:17.460Z,44.35
2023-04-22T11:50:04.596Z,44.72
2023-04-22T11:52:45.294Z,45.00
2023-04-22T11:55:23.683Z,44.48
2023-04-22T11:57:58.600Z,44.78
2023-04-22T12:00:37.304Z,45.08
2023-04-22T12:03:16.992Z,44.69
2023-04-22T12:05:53.793Z,45.21
2023-04-22T12:08:32.531Z,44.83
2023-04-22T12:11:10.506Z,44.66
2023-04-22T12:13:50.698Z,44.68
2023-04-22T12:16:23.122Z,45.14
2023-04-22T12:18:56.202Z,45.10
2023-04-22T12:21:30.131Z,45.39
2023-04-22T12:24:08.444Z,44.59
2023-04-22T12:26:41.126Z,45.21
2023-04-22T12:29:13.730Z,44.77
2023-04-22T12:31:46.246Z,44.59
2023-04-22T12:34:18.677Z,44.97
2023-04-22T12:36:51.080Z,44.80
2023-04-22T12:39:23.459Z,44.74
2023-04-22T12:41:55.947Z,44.92
2023-04-22T12:44:28.987Z,44.71
2023-04-22T12:47:01.517Z,45.29
2023-04-22T12:49:34.024Z,44.85
2023-04-22T12:52:06.579Z,45.24
2023-04-22T12:54:38.995Z,45.33
2023-04-22T12:57:11.995Z,45.27
2023-04-22T12:59:47.365Z,45.17
2023-04-22T13:02:19.989Z,45.31
2023-04-22T13:04:52.473Z,45.31
2023-04-22T13:07:24.940Z,44.93
2023-04-22T13:09:57.423Z,45.12
2023-04-22T13:12:29.903Z,44.78
2023-04-22T13:15:03.440Z,45.31
2023-04-22T13:17:36.418Z,45.30
2023-04-22T13:20:09.857Z,44.77
2023-04-22T13:22:43.124Z,45.62
2023-04-22T13:25:15.696Z,45.75
2023-04-22T13:27:48.283Z,44.85
2023-04-22T13:30:20.783Z,45.41
2023-04-22T13:32:53.352Z,45.10
2023-04-22T13:35:25.865Z,45.35
2023-04-22T13:37:58.474Z,45.04
2023-04-22T13:40:30.887Z,45.16
2023-04-22T13:43:04.457Z,45.40
2023-04-22T13:45:36.983Z,45.21
2023-04-22T13:48:09.389Z,45.58
2023-04-22T13:50:42.722Z,45.78
2023-04-22T13:53:16.878Z,45.60
2023-04-22T13:55:49.451Z,45.48
2023-04-22T13:58:22.266Z,45.93
2023-04-22T14:00:54.873Z,45.80
2023-04-22T14:03:28.501Z,45.44
2023-04-22T14:06:01.577Z,45.16
2023-04-22T14:08:34.119Z,45.67
2023-04-22T14:11:07.511Z,45.48
2023-04-22T14:13:40.237Z,45.78
2023-04-22T14:16:13.090Z,45.01
2023-04-22T14:18:45.751Z,45.34
2023-04-22T14:21:18.150Z,45.38
2023-04-22T14:23:53.668Z,45.96
2023-04-22T14:26:26.339Z,45.84
2023-04-22T14:28:59.201Z,45.37
2023-04-22T14:31:31.665Z,45.37
2023-04-22T14:34:04.302Z,45.01
2023-04-22T14:36:36.910Z,45.95
2023-04-22T14:39:09.511Z,45.34
2023-04-22T14:41:41.997Z,45.71
2023-04-22T14:44:14.501Z,45.79
2023-04-22T14:46:47.060Z,45.36
2023-04-22T14:49:19.568Z,45.83
2023-04-22T14:51:52.046Z,46.01
2023-04-22T14:54:24.460Z,45.73
2023-04-22T14:56:56.948Z,46.09
2023-04-22T14:59:29.578Z,45.09
2023-04-22T15:02:02.182Z,45.88
2023-04-22T15:04:34.766Z,45.85
2023-04-22T15:07:07.773Z,45.27
2023-04-22T15:09:40.612Z,45.96
2023-04-22T15:12:13.256Z,45.80
2023-04-22T15:14:45.890Z,45.87
2023-04-22T15:17:19.134Z,45.92
2023-04-22T15:19:53.319Z,45.94
2023-04-22T15:22:25.838Z,46.07
2023-04-22T15:24:58.224Z,45.71
2023-04-22T15:27:31.151Z,45.16
2023-04-22T15:30:05.865Z,45.64
2023-04-22T15:32:44.051Z,46.06
2023-04-22T15:35:16.635Z,45.51
2023-04-22T15:37:49.093Z,45.56
2023-04-22T15:40:21.500Z,45.83
2023-04-22T15:42:53.919Z,46.00
2023-04-22T15:45:26.339Z,46.02
2023-04-22T15:47:58.888Z,46.20
2023-04-22T15:50:31.675Z,45.60
2023-04-22T15:53:04.236Z,46.18
2023-04-22T15:55:36.638Z,46.08
2023-04-22T15:58:09.109Z,45.05
2023-04-22T16:00:41.696Z,46.38
2023-04-22T16:03:14.501Z,45.63
2023-04-22T16:05:47.145Z,45.80
2023-04-22T16:08:19.548Z,45.98
2023-04-22T16:10:52.189Z,45.69
2023-04-22T16:13:24.651Z,45.53
2023-04-22T16:15:57.979Z,46.19
2023-04-22T16:18:30.852Z,45.88
2023-04-22T16:21:07.050Z,46.05
2023-04-22T16:23:42.630Z,46.09
2023-04-22T16:26:15.579Z,45.51
2023-04-22T16:28:47.978Z,45.98
2023-04-22T16:31:22.927Z,45.87
2023-04-22T16:33:55.880Z,45.90
2023-04-22T16:36:29.041Z,45.80
2023-04-22T16:39:01.820Z,45.81
2023-04-22T16:41:37.239Z,46.58
2023-04-22T16:44:09.843Z,46.07
2023-04-22T16:46:48.650Z,46.45
2023-04-22T16:49:21.118Z,46.64
2023-04-22T16:51:53.610Z,46.50
2023-04-22T16:54:26.106Z,46.64
2023-04-22T16:56:58.634Z,46.04
2023-04-22T16:59:31.336Z,46.08
2023-04-22T17:02:04.381Z,46.24
2023-04-22T17:04:36.998Z,46.10
2023-04-22T17:07:09.570Z,46.73
2023-04-22T17:09:42.471Z,45.53
2023-04-22T17:12:15.656Z,46.42
2023-04-22T17:14:48.189Z,46.19
2023-04-22T17:17:20.663Z,46.78
2023-04-22T17:19:53.109Z,46.15
2023-04-22T17:22:25.997Z,46.78
2023-04-22T17:24:58.863Z,46.60
2023-04-22T17:27:31.633Z,46.49
2023-04-22T17:30:04.414Z,46.69
2023-04-22T17:32:36.911Z,46.25
2023-04-22T17:35:09.853Z,46.79
2023-04-22T17:37:42.327Z,46.24
2023-04-22T17:40:14.813Z,46.74
2023-04-22T17:42:47.445Z,45.95
2023-04-22T17:45:19.998Z,46.48
2023-04-22T17:47:52.442Z,46.83
2023-04-22T17:50:25.396Z,46.89
2023-04-22T17:52:58.167Z,46.19
2023-04-22T17:55:32.450Z,45.80
2023-04-22T17:58:05.701Z,46.91
2023-04-22T18:00:38.388Z,46.12
2023-04-22T18:03:11.029Z,47.14
2023-04-22T18:05:44.744Z,45.90
2023-04-22T18:08:17.164Z,46.61
2023-04-22T18:10:49.731Z,46.27
2023-04-22T18:13:22.220Z,46.32
2023-04-22T18:15:54.648Z,46.41
2023-04-22T18:18:27.114Z,46.48
2023-04-22T18:21:00.789Z,47.00
2023-04-22T18:23:35.023Z,45.86
2023-04-22T18:26:11.196Z,46.34
2023-04-22T18:28:44.527Z,46.55
2023-04-22T18:31:17.060Z,46.34
2023-04-22T18:33:49.618Z,47.15
2023-04-22T18:36:22.390Z,46.54
2023-04-22T18:38:54.824Z,46.26
2023-04-22T18:41:27.259Z,46.45
2023-04-22T18:43:59.666Z,46.88
2023-04-22T18:46:32.182Z,46.98
2023-04-22T18:49:04.804Z,46.40
2023-04-22T18:51:38.256Z,46.56
2023-04-22T18:54:12.244Z,46.67
2023-04-22T18:56:46.020Z,47.04
2023-04-22T18:59:18.720Z,46.39
2023-04-22T19:01:51.450Z,46.75
2023-04-22T19:04:24.014Z,46.67
2023-04-22T19:06:59.245Z,46.13
2023-04-22T19:09:32.273Z,46.78
2023-04-22T19:12:06.084Z,46.17
2023-04-22T19:14:38.740Z,47.10
2023-04-22T19:17:11.391Z,47.27
2023-04-22T19:19:45.365Z,46.25
2023-04-22T19:22:18.656Z,46.71
2023-04-22T19:24:51.209Z,46.66
2023-04-22T19:27:23.842Z,47.18
2023-04-22T19:29:56.343Z,46.28
2023-04-22T19:32:28.977Z,46.74
2023-04-22T19:35:03.889Z,46.93
2023-04-22T19:37:36.788Z,47.22
2023-04-22T19:40:09.578Z,46.67
2023-04-22T19:42:42.029Z,46.89
2023-04-22T19:45:14.467Z,47.41
2023-04-22T19:47:47.099Z,46.26
2023-04-22T19:50:19.886Z,46.78
2023-04-22T19:53:00.635Z,47.23
2023-04-22T19:55:33.725Z,47.21
2023-04-22T19:58:06.691Z,46.87
2023-04-22T20:00:39.751Z,46.29
2023-04-22T20:03:14.364Z,46.86
2023-04-22T20:05:48.771Z,46.44
2023-04-22T20:08:27.138Z,46.66
2023-04-22T20:11:00.515Z,47.80
2023-04-22T20:13:33.271Z,47.54
2023-04-22T20:16:06.066Z,46.87
2023-04-22T20:18:38.628Z,47.41
2023-04-22T20:21:11.078Z,46.96
2023-04-22T20:23:45.273Z,46.83
2023-04-22T20:26:19.857Z,47.41
2023-04-22T20:28:53.694Z,46.75
2023-04-22T20:31:26.417Z,47.07
2023-04-22T20:33:59.154Z,46.80
2023-04-22T20:36:32.777Z,47.54
2023-04-22T20:39:05.856Z,47.46
2023-04-22T20:41:41.406Z,47.66
2023-04-22T20:44:14.125Z,47.55
2023-04-22T20:46:46.810Z,46.78
2023-04-22T20:49:19.333Z,47.61
2023-04-22T20:51:52.911Z,46.78
2023-04-22T20:54:43.562Z,47.68
2023-04-22T20:57:16.080Z,46.76
2023-04-22T20:59:48.648Z,47.44
2023-04-22T21:02:21.808Z,46.38
2023-04-22T21:04:54.590Z,46.69
2023-04-22T21:07:30.713Z,47.44
2023-04-22T21:10:03.446Z,47.53
2023-04-22T21:12:36.597Z,46.96
2023-04-22T21:15:09.663Z,47.52
2023-04-22T21:17:51.552Z,47.55
2023-04-22T21:20:27.097Z,46.98
2023-04-22T21:23:01.720Z,46.44
2023-04-22T21:25:35.748Z,47.36
2023-04-22T21:28:08.606Z,46.50
2023-04-22T21:30:41.545Z,46.71
2023-04-22T21:33:13.958Z,46.72
2023-04-22T21:35:47.796Z,47.40
2023-04-22T21:38:20.515Z,47.00
2023-04-22T21:40:52.992Z,46.82
2023-04-22T21:43:25.694Z,46.62
2023-04-22T21:45:58.134Z,46.67
2023-04-22T21:48:30.752Z,46.85
2023-04-22T21:51:04.028Z,46.60
2023-04-22T21:53:36.570Z,46.63
2023-04-22T21:56:08.995Z,46.45
2023-04-22T21:58:41.901Z,46.68
2023-04-22T22:01:14.446Z,46.70
2023-04-22T22:03:47.265Z,46.83
2023-04-22T22:06:20.962Z,46.43
2023-04-22T22:08:55.911Z,47.33
2023-04-22T22:11:31.337Z,47.34
2023-04-22T22:14:07.166Z,46.55
2023-04-22T22:16:39.825Z,47.29
2023-04-22T22:19:16.168Z,47.12
2023-04-22T22:21:48.630Z,46.34
2023-04-22T22:24:23.230Z,46.79
2023-04-22T22:26:57.885Z,46.68
2023-04-22T22:29:30.491Z,46.22
2023-04-22T22:32:03.251Z,46.60
2023-04-22T22:34:35.678Z,46.93
2023-04-22T22:37:08.382Z,46.73
2023-04-22T22:39:41.007Z,46.50
2023-04-22T22:42:14.608Z,47.01
2023-04-22T22:44:47.043Z,46.40
2023-04-22T22:47:19.629Z,46.80
2023-04-22T22:49:52.241Z,47.24
2023-04-22T22:52:24.760Z,47.15
2023-04-22T22:54:57.428Z,47.14
2023-04-22T22:57:29.891Z,46.89
2023-04-22T23:00:05.960Z,46.06
2023-04-22T23:02:38.663Z,46.50
2023-04-22T23:05:11.317Z,47.26
2023-04-22T23:07:43.835Z,46.76
2023-04-22T23:10:16.576Z,47.11
2023-04-22T23:12:49.408Z,47.11
2023-04-22T23:15:22.162Z,46.77
2023-04-22T23:17:54.665Z,47.22
2023-04-22T23:20:27.593Z,46.05
2023-04-22T23:23:02.463Z,47.03
2023-04-22T23:25:35.185Z,46.82
2023-04-22T23:28:07.957Z,46.79
2023-04-22T23:30:41.358Z,47.24
2023-04-22T23:33:16.704Z,47.01
2023-04-22T23:35:51.221Z,46.73
2023-04-22T23:38:23.727Z,46.34
2023-04-22T23:40:56.239Z,46.69
2023-04-22T23:43:30.124Z,46.76
2023-04-22T23:46:02.798Z,46.44
2023-04-22T23:48:36.027Z,47.37
2023-04-22T23:51:12.785Z,46.80
2023-04-22T23:53:47.057Z,46.77
2023-04-22T23:56:22.249Z,46.03
2023-04-22T23:58:54.987Z,47.25
